Time;durP1;ratioP1;P1;durP2;ratioP2;P2;SDS_P1;SDS_P2;PMS_P1;PMS_P2;Temp;Humidity;BMP_temperature;BMP_pressure;BME280_temperature;BME280_humidity;BME280_pressure;Samples;Min_cycle;Max_cycle;Signal;HPM_P1;HPM_P2
2021/12/05 00:16:59;;;;;;;;;;;;;;;2.95;100.00;99762.78;5087726;28;20236;-43
2021/12/05 00:21:59;;;;;;;;;;;;;;;2.95;100.00;99764.56;5021087;28;20404;-42
2021/12/05 00:24:27;;;;;;;;;;;;;;;2.94;100.00;99766.38;5073283;28;19925;-42
2021/12/05 00:26:57;;;;;;;;;;;;;;;2.92;100.00;99764.81;5057900;28;19965;-42
2021/12/05 00:29:39;;;;;;;;;;;;;;;2.87;100.00;99764.41;5065565;28;19907;-45
2021/12/05 00:35:09;;;;;;;;;;;;;;;2.85;100.00;99759.31;5076074;28;20489;-42
2021/12/05 00:38:08;;;;;;;;;;;;;;;2.82;100.00;99762.22;5076619;28;19974;-44
2021/12/05 01:14:33;;;;;;;;;;;;;;;2.58;100.00;99773.13;5075859;28;19957;-43
2021/12/05 01:17:00;;;;;;;;;;;;;;;2.51;100.00;99767.59;5076191;28;19912;-43
2021/12/05 01:19:26;;;;;;;;;;;;;;;2.45;100.00;99776.03;5071032;28;19938;-42
2021/12/05 01:21:54;;;;;;;;;;;;;;;2.37;100.00;99778.50;5061111;28;19912;-42
2021/12/05 01:34:34;;;;;;;;;;;;;;;2.11;100.00;99772.88;5075186;28;20391;-42
2021/12/05 01:39:48;;;;;;;;;;;;;;;2.02;100.00;99769.22;5076415;28;19908;-44
2021/12/05 01:45:14;;;;;;;;;;;;;;;1.96;100.00;99762.69;5056250;28;19908;-44
2021/12/05 01:53:28;;;;;;;;;;;;;;;1.87;100.00;99771.38;5075700;28;20261;-43
2021/12/05 01:59:02;;;;;;;;;;;;;;;1.83;100.00;99775.22;5055208;28;19915;-46
2021/12/05 02:10:48;;;;;;;;;;;;;;;1.76;100.00;99761.75;5055990;28;19939;-44
2021/12/05 02:41:56;;;;;;;;;;;;;;;1.82;100.00;99748.09;5074741;28;19912;-43
2021/12/05 02:44:24;;;;;;;;;;;;;;;1.82;100.00;99742.81;5075053;28;19919;-42
2021/12/05 02:47:08;;;;;;;;;;;;;;;1.84;100.00;99742.69;5079493;28;20408;-44
2021/12/05 02:49:35;;;;;;;;;;;;;;;1.89;100.00;99744.94;5077091;28;20065;-43
2021/12/05 02:52:04;;;;;;;;;;;;;;;1.91;100.00;99740.38;5078274;28;20090;-43
2021/12/05 02:54:33;;;;;;;;;;;;;;;1.92;100.00;99742.00;5077869;28;20417;-48
2021/12/05 02:56:59;;;;;;;;;;;;;;;1.93;100.00;99755.03;5076030;28;20105;-43
2021/12/05 03:01:57;;;;;;;;;;;;;;;1.94;100.00;99751.47;5079112;28;20368;-44
2021/12/05 03:04:24;;;;;;;;;;;;;;;1.96;100.00;99748.69;5077916;28;19919;-43
2021/12/05 03:06:52;;;;;;;;;;;;;;;2.07;100.00;99751.25;5077330;28;19912;-44
2021/12/05 03:09:18;;;;;;;;;;;;;;;2.14;100.00;99743.63;5078298;28;20324;-43
2021/12/05 03:11:44;;;;;;;;;;;;;;;2.15;100.00;99740.84;5075877;28;19912;-42
2021/12/05 03:14:10;;;;;;;;;;;;;;;2.21;100.00;99742.97;5062889;28;19999;-43
2021/12/05 03:16:37;;;;;;;;;;;;;;;2.21;100.00;99745.59;5069074;28;20438;-43
2021/12/05 03:19:03;;;;;;;;;;;;;;;2.22;100.00;99747.28;5064911;28;19908;-43
2021/12/05 03:21:29;;;;;;;;;;;;;;;2.24;100.00;99741.84;5057631;28;19947;-44
2021/12/05 03:23:55;;;;;;;;;;;;;;;2.25;100.00;99740.88;5055896;28;19967;-44
2021/12/05 03:26:23;;;;;;;;;;;;;;;2.21;100.00;99742.97;5057855;28;19917;-41
2021/12/05 03:28:50;;;;;;;;;;;;;;;2.20;100.00;99741.28;5058242;28;20333;-41
2021/12/05 03:31:15;;;;;;;;;;;;;;;2.17;100.00;99744.22;5069660;28;19997;-42
2021/12/05 03:33:40;;;;;;;;;;;;;;;2.17;100.00;99753.88;5077544;28;20229;-41
2021/12/05 03:36:07;;;;;;;;;;;;;;;2.16;100.00;99741.69;5077070;28;20007;-42
2021/12/05 03:38:33;;;;;;;;;;;;;;;2.15;100.00;99746.13;5057670;28;20011;-43
2021/12/05 03:40:58;;;;;;;;;;;;;;;2.13;100.00;99741.97;5056348;28;19912;-44
2021/12/05 03:43:24;;;;;;;;;;;;;;;2.08;100.00;99742.34;5070493;28;20287;-42
2021/12/05 03:45:51;;;;;;;;;;;;;;;2.09;100.00;99743.19;5078298;28;19947;-41
2021/12/05 03:48:16;;;;;;;;;;;;;;;2.08;100.00;99738.91;5061740;28;19918;-41
2021/12/05 03:50:42;;;;;;;;;;;;;;;2.08;100.00;99744.16;5056601;28;20366;-42
2021/12/05 03:53:08;;;;;;;;;;;;;;;2.07;100.00;99748.63;5057418;28;19980;-43
2021/12/05 03:55:34;;;;;;;;;;;;;;;2.08;100.00;99759.97;5080296;28;19920;-45
2021/12/05 03:58:00;;;;;;;;;;;;;;;2.09;100.00;99751.09;5077799;28;19921;-44
2021/12/05 04:00:33;;;;;;;;;;;;;;;2.11;100.00;99750.00;5072686;28;19916;-42
2021/12/05 04:03:00;;;;;;;;;;;;;;;2.14;100.00;99743.63;5068497;28;19923;-42
2021/12/05 04:05:25;;;;;;;;;;;;;;;2.17;100.00;99751.25;5071324;28;20213;-42
2021/12/05 04:07:51;;;;;;;;;;;;;;;2.22;100.00;99747.28;5066678;28;19926;-43
2021/12/05 04:10:16;;;;;;;;;;;;;;;2.27;100.00;99744.22;5065400;28;19920;-44
2021/12/05 04:12:43;;;;;;;;;;;;;;;2.30;100.00;99746.56;5066549;28;19920;-45
2021/12/05 04:15:10;;;;;;;;;;;;;;;2.31;100.00;99750.91;5066546;28;19959;-42
2021/12/05 04:17:35;;;;;;;;;;;;;;;2.33;100.00;99754.22;5063930;28;20375;-44
2021/12/05 04:20:01;;;;;;;;;;;;;;;2.36;100.00;99753.97;5065814;28;19939;-43
2021/12/05 04:22:26;;;;;;;;;;;;;;;2.42;100.00;99757.84;5071732;28;20007;-43
2021/12/05 04:24:51;;;;;;;;;;;;;;;2.45;100.00;99748.84;5059931;28;19976;-43
2021/12/05 04:27:17;;;;;;;;;;;;;;;2.46;100.00;99750.50;5063218;28;19951;-44
2021/12/05 04:29:42;;;;;;;;;;;;;;;2.49;100.00;99745.78;5077792;28;19900;-44
2021/12/05 04:32:07;;;;;;;;;;;;;;;2.50;100.00;99736.91;5060744;28;19912;-43
2021/12/05 04:34:33;;;;;;;;;;;;;;;2.51;100.00;99743.88;5056297;28;19917;-46
2021/12/05 04:36:58;;;;;;;;;;;;;;;2.51;100.00;99741.22;5056624;28;19913;-45
2021/12/05 04:39:25;;;;;;;;;;;;;;;2.51;100.00;99743.88;5056583;28;20426;-44
2021/12/05 04:41:50;;;;;;;;;;;;;;;2.51;100.00;99741.22;5058177;28;20564;-45
2021/12/05 04:44:17;;;;;;;;;;;;;;;2.53;100.00;99747.19;5062780;28;20185;-41
2021/12/05 04:46:42;;;;;;;;;;;;;;;2.51;100.00;99745.66;5074773;28;19938;-45
2021/12/05 04:49:07;;;;;;;;;;;;;;;2.50;100.00;99744.00;5057864;28;19998;-42
2021/12/05 04:51:35;;;;;;;;;;;;;;;2.50;100.00;99746.63;5055860;28;19912;-44
2021/12/05 04:54:01;;;;;;;;;;;;;;;2.54;100.00;99746.19;5055391;28;19919;-46
2021/12/05 04:56:27;;;;;;;;;;;;;;;2.49;100.00;99743.16;5056539;28;19909;-42
2021/12/05 04:58:53;;;;;;;;;;;;;;;2.49;100.00;99745.78;5069279;28;20509;-41
2021/12/05 05:01:18;;;;;;;;;;;;;;;2.49;100.00;99740.50;5058150;28;19912;-41
2021/12/05 05:03:44;;;;;;;;;;;;;;;2.51;100.00;99743.00;5057965;28;20406;-41
2021/12/05 05:06:15;;;;;;;;;;;;;;;2.52;100.00;99745.50;5072042;28;19912;-45
2021/12/05 05:08:41;;;;;;;;;;;;;;;2.52;100.00;99745.50;5056915;28;20003;-44
2021/12/05 05:11:08;;;;;;;;;;;;;;;2.54;100.00;99745.38;5061376;28;20275;-42
2021/12/05 05:13:34;;;;;;;;;;;;;;;2.52;100.00;99750.78;5076657;28;19991;-42
2021/12/05 05:15:59;;;;;;;;;;;;;;;2.54;100.00;99755.91;5076156;28;20345;-42
2021/12/05 05:18:29;;;;;;;;;;;;;;;2.52;100.00;99750.78;5075401;28;19911;-42
2021/12/05 05:21:11;;;;;;;;;;;;;;;2.50;100.00;99751.91;5073935;28;20215;-42
2021/12/05 05:40:27;;;;;;;;;;;;;;;2.52;100.00;99771.88;5055353;28;19915;-42
2021/12/05 05:46:00;;;;;;;;;;;;;;;2.53;100.00;99786.72;5054786;28;19962;-43
2021/12/05 05:51:02;;;;;;;;;;;;;;;2.57;100.00;99782.00;5031894;28;20280;-47
2021/12/05 05:53:27;;;;;;;;;;;;;;;2.56;100.00;99789.09;5071279;28;20462;-44
2021/12/05 05:55:54;;;;;;;;;;;;;;;2.49;100.00;99780.03;5059626;28;19982;-42
2021/12/05 05:58:24;;;;;;;;;;;;;;;2.55;100.00;99789.22;5054657;28;19958;-42
2021/12/05 06:01:03;;;;;;;;;;;;;;;2.54;100.00;99788.38;5055618;28;20368;-43
2021/12/05 06:03:29;;;;;;;;;;;;;;;2.53;100.00;99792.00;5053708;28;20007;-42
2021/12/05 06:05:59;;;;;;;;;;;;;;;2.54;100.00;99788.38;5055276;28;20383;-44
2021/12/05 06:08:26;;;;;;;;;;;;;;;2.55;100.00;99791.88;5055191;28;19908;-45
2021/12/05 06:10:52;;;;;;;;;;;;;;;2.56;100.00;99802.28;5065624;28;20019;-42
2021/12/05 06:13:19;;;;;;;;;;;;;;;2.56;100.00;99799.63;5058918;28;19912;-47
2021/12/05 06:15:45;;;;;;;;;;;;;;;2.54;100.00;99806.00;5055721;28;19970;-41
2021/12/05 06:18:10;;;;;;;;;;;;;;;2.57;100.00;99811.00;5068586;28;19915;-43
2021/12/05 06:20:35;;;;;;;;;;;;;;;2.52;100.00;99811.41;5074344;28;19908;-44
2021/12/05 06:23:01;;;;;;;;;;;;;;;2.52;100.00;99815.84;5055903;28;20594;-44
2021/12/05 06:25:28;;;;;;;;;;;;;;;2.47;100.00;99813.59;5075367;28;19916;-45
2021/12/05 06:27:54;;;;;;;;;;;;;;;2.46;100.00;99821.66;5076037;28;19957;-44
2021/12/05 06:30:32;;;;;;;;;;;;;;;2.43;100.00;99817.50;5073843;28;19923;-42
2021/12/05 06:41:11;;;;;;;;;;;;;;;2.37;100.00;99829.38;5062240;28;19908;-41
2021/12/05 06:48:34;;;;;;;;;;;;;;;2.36;100.00;99832.16;5053228;28;19912;-43
2021/12/05 06:50:59;;;;;;;;;;;;;;;2.34;100.00;99834.94;5061407;28;19912;-42
2021/12/05 06:53:24;;;;;;;;;;;;;;;2.38;100.00;99838.13;5074878;28;19911;-42
2021/12/05 06:55:49;;;;;;;;;;;;;;;2.36;100.00;99845.31;5075397;28;19919;-41
2021/12/05 06:58:15;;;;;;;;;;;;;;;2.36;100.00;99853.22;5073796;28;19908;-43
2021/12/05 07:00:40;;;;;;;;;;;;;;;2.34;100.00;99856.03;5060271;28;19969;-44
2021/12/05 07:03:07;;;;;;;;;;;;;;;2.34;100.00;99860.44;5053900;28;19912;-44
2021/12/05 07:05:45;;;;;;;;;;;;;;;2.34;100.00;99866.56;5052734;28;19908;-41
2021/12/05 07:08:13;;;;;;;;;;;;;;;2.33;100.00;99872.78;5054944;28;19909;-46
2021/12/05 07:10:50;;;;;;;;;;;;;;;2.33;100.00;99875.41;5072023;28;20266;-42
2021/12/05 07:21:17;;;;;;;;;;;;;;;2.34;100.00;99882.38;5076678;28;19960;-44
2021/12/05 07:40:22;;;;;;;;;;;;;;;2.37;100.00;99902.34;5093199;28;20046;-43
2021/12/05 07:40:29;;;;;;;;;;;;;;;2.42;100.00;99908.88;5081069;28;20447;-43
2021/12/05 07:42:58;;;;;;;;;;;;;;;2.45;100.00;99901.69;5066872;28;19954;-43
2021/12/05 07:45:31;;;;;;;;;;;;;;;2.45;100.00;99912.22;5077143;28;20624;-43
2021/12/05 07:48:00;;;;;;;;;;;;;;;2.46;100.00;99903.34;5060273;28;19973;-42
2021/12/05 07:50:40;;;;;;;;;;;;;;;2.46;100.00;99919.16;5057470;28;19959;-44
2021/12/05 07:53:11;;;;;;;;;;;;;;;2.47;100.00;99920.84;5057439;28;20026;-42
2021/12/05 07:55:42;;;;;;;;;;;;;;;2.48;100.00;99918.06;5058533;28;19951;-48
2021/12/05 08:16:45;;;;;;;;;;;;;;;2.59;100.00;99925.03;5077311;28;20203;-43
2021/12/05 08:19:10;;;;;;;;;;;;;;;2.60;100.00;99924.09;5074430;28;19909;-43
2021/12/05 08:21:36;;;;;;;;;;;;;;;2.58;100.00;99929.50;5073454;28;19923;-41
2021/12/05 08:24:01;;;;;;;;;;;;;;;2.65;100.00;99928.94;5061745;28;19916;-42
2021/12/05 08:26:32;;;;;;;;;;;;;;;2.67;100.00;99934.94;5077732;28;19995;-42
2021/12/05 08:31:44;;;;;;;;;;;;;;;2.75;100.00;99949.13;5063180;28;19913;-42
2021/12/05 08:39:27;;;;;;;;;;;;;;;2.93;100.00;99951.13;5077061;28;19916;-42
2021/12/05 09:22:30;;;;;;;;;;;;;;;3.11;100.00;100027.81;5076588;28;20117;-43
2021/12/05 09:25:02;;;;;;;;;;;;;;;3.12;100.00;100025.06;5056711;28;19920;-46
2021/12/05 10:02:43;;;;;;;;;;;;;;;3.12;100.00;100072.53;5064721;28;20360;-44
2021/12/05 10:08:30;;;;;;;;;;;;;;;3.16;100.00;100081.84;5071017;28;20438;-42
2021/12/05 10:11:15;;;;;;;;;;;;;;;3.18;100.00;100082.56;5072090;28;20003;-45
2021/12/05 10:17:06;;;;;;;;;;;;;;;3.24;100.00;100086.50;5010292;28;20292;-43
2021/12/05 10:20:09;;;;;;;;;;;;;;;3.26;100.00;100099.53;5009686;28;20011;-45
2021/12/05 10:38:48;;;;;;;;;;;;;;;3.32;100.00;100114.84;5073281;28;20010;-46
2021/12/05 10:41:23;;;;;;;;;;;;;;;3.30;100.00;100109.69;5074296;28;19957;-43
2021/12/05 10:43:54;;;;;;;;;;;;;;;3.29;100.00;100110.69;5074283;28;20322;-44
2021/12/05 10:46:21;;;;;;;;;;;;;;;3.31;100.00;100116.66;5073696;28;20146;-44
2021/12/05 10:48:55;;;;;;;;;;;;;;;3.33;100.00;100116.53;5050122;28;19912;-43
2021/12/05 10:51:24;;;;;;;;;;;;;;;3.35;100.00;100123.31;5074670;28;19915;-42
2021/12/05 10:53:51;;;;;;;;;;;;;;;3.38;100.00;100126.66;5078050;28;19934;-47
2021/12/05 10:56:25;;;;;;;;;;;;;;;3.39;100.00;100120.44;5078195;28;20247;-45
2021/12/05 10:58:56;;;;;;;;;;;;;;;3.41;100.00;100126.41;5078620;28;19969;-41
2021/12/05 11:01:24;;;;;;;;;;;;;;;3.39;100.00;100121.25;5061267;28;19912;-46
2021/12/05 11:03:51;;;;;;;;;;;;;;;3.38;100.00;100119.59;5058666;28;19919;-46
2021/12/05 11:06:24;;;;;;;;;;;;;;;3.39;100.00;100120.44;5057825;28;20328;-45
2021/12/05 11:08:54;;;;;;;;;;;;;;;3.40;100.00;100124.75;5063922;28;20227;-42
2021/12/05 11:11:19;;;;;;;;;;;;;;;3.39;100.00;100126.53;5075488;28;19977;-42
2021/12/05 11:13:45;;;;;;;;;;;;;;;3.39;100.00;100130.97;5079067;28;19920;-43
2021/12/05 11:16:29;;;;;;;;;;;;;;;3.40;100.00;100135.31;5077661;28;19919;-42
2021/12/05 11:18:54;;;;;;;;;;;;;;;3.43;100.00;100137.66;5059230;28;19924;-42
2021/12/05 11:21:30;;;;;;;;;;;;;;;3.39;100.00;100137.09;5057855;28;19908;-45
2021/12/05 11:24:05;;;;;;;;;;;;;;;3.35;100.00;100140.97;5058155;28;19916;-42
2021/12/05 11:26:30;;;;;;;;;;;;;;;3.42;100.00;100149.19;5045370;28;19912;-42
2021/12/05 11:28:56;;;;;;;;;;;;;;;3.42;100.00;100146.56;5066965;28;19907;-45
2021/12/05 11:31:25;;;;;;;;;;;;;;;3.42;100.00;100157.13;5061127;28;19920;-42
2021/12/05 11:33:53;;;;;;;;;;;;;;;3.40;100.00;100159.88;5075800;28;19945;-44
2021/12/05 11:36:22;;;;;;;;;;;;;;;3.38;100.00;100163.63;5074876;28;20014;-45
2021/12/05 11:38:47;;;;;;;;;;;;;;;3.36;100.00;100163.75;5078157;28;19919;-45
2021/12/05 11:41:14;;;;;;;;;;;;;;;3.37;100.00;100170.69;5078526;28;20368;-42
2021/12/05 11:43:39;;;;;;;;;;;;;;;3.39;100.00;100167.94;5078389;28;19948;-44
2021/12/05 11:46:10;;;;;;;;;;;;;;;3.41;100.00;100171.28;5080377;28;20363;-46
2021/12/05 11:48:38;;;;;;;;;;;;;;;3.45;100.00;100167.41;5081589;28;19973;-44
2021/12/05 11:51:24;;;;;;;;;;;;;;;3.47;100.00;100171.59;5073747;28;20391;-43
2021/12/05 11:54:01;;;;;;;;;;;;;;;3.51;100.00;100170.38;5051895;28;20061;-42
2021/12/05 11:56:29;;;;;;;;;;;;;;;3.60;100.00;100170.53;5059212;28;19923;-44
2021/12/05 11:59:13;;;;;;;;;;;;;;;3.63;100.00;100170.25;5076216;28;20524;-43
2021/12/05 12:01:42;;;;;;;;;;;;;;;3.66;100.00;100170.00;5057324;28;20372;-41
2021/12/05 12:04:08;;;;;;;;;;;;;;;3.66;100.00;100186.66;5077873;28;19915;-42
2021/12/05 12:06:33;;;;;;;;;;;;;;;3.67;100.00;100190.16;5076857;28;19912;-43
2021/12/05 12:08:59;;;;;;;;;;;;;;;3.63;100.00;100181.69;5078050;28;20409;-41
2021/12/05 12:11:24;;;;;;;;;;;;;;;3.72;100.00;100191.44;5077110;28;19908;-42
2021/12/05 12:13:51;;;;;;;;;;;;;;;3.78;100.00;100189.22;5068309;28;20082;-46
2021/12/05 12:16:16;;;;;;;;;;;;;;;3.78;100.00;100190.06;5055817;28;19924;-43
2021/12/05 12:18:45;;;;;;;;;;;;;;;3.74;100.00;100192.13;5071948;28;20140;-42
2021/12/05 12:21:22;;;;;;;;;;;;;;;3.77;100.00;100195.47;5075538;28;19961;-42
2021/12/05 12:23:48;;;;;;;;;;;;;;;3.80;100.00;100196.06;5075922;28;19999;-44
2021/12/05 12:26:14;;;;;;;;;;;;;;;3.84;100.00;100199.28;5077890;28;19912;-42
2021/12/05 12:28:39;;;;;;;;;;;;;;;3.88;100.00;100198.84;5074761;28;19908;-46
2021/12/05 12:31:11;;;;;;;;;;;;;;;3.90;100.00;100204.84;5075437;28;20388;-43
2021/12/05 12:33:50;;;;;;;;;;;;;;;3.90;100.00;100204.00;5075826;28;19976;-44
2021/12/05 12:36:16;;;;;;;;;;;;;;;3.84;100.00;100215.13;5074843;28;19924;-45
2021/12/05 12:38:45;;;;;;;;;;;;;;;3.84;100.00;100212.47;5077559;28;19916;-42
2021/12/05 12:41:18;;;;;;;;;;;;;;;3.83;100.00;100211.63;5079737;28;19927;-44
2021/12/05 12:43:48;;;;;;;;;;;;;;;3.80;100.00;100209.28;5076861;28;19912;-44
2021/12/05 12:46:16;;;;;;;;;;;;;;;3.76;100.00;100213.13;5076549;28;20004;-43
2021/12/05 12:48:41;;;;;;;;;;;;;;;3.74;100.00;100220.34;5077954;28;20398;-44
2021/12/05 12:51:06;;;;;;;;;;;;;;;3.69;100.00;100222.56;5076245;28;19908;-44
2021/12/05 12:53:38;;;;;;;;;;;;;;;3.68;100.00;100221.72;5074236;28;20339;-42
2021/12/05 12:56:11;;;;;;;;;;;;;;;3.73;100.00;100232.72;5071889;28;20372;-44
2021/12/05 12:58:39;;;;;;;;;;;;;;;3.77;100.00;100228.00;5076362;28;20436;-42
2021/12/05 13:12:40;;;;;;;;;;;;;;;3.93;100.00;100240.72;5077221;28;19915;-42
2021/12/05 13:15:12;;;;;;;;;;;;;;;3.99;100.00;100247.25;5064016;28;20015;-46
2021/12/05 13:17:51;;;;;;;;;;;;;;;3.97;100.00;100247.44;5065518;28;20033;-44
2021/12/05 13:20:21;;;;;;;;;;;;;;;3.98;100.00;100250.91;5055509;28;20236;-44
2021/12/05 13:22:59;;;;;;;;;;;;;;;3.95;100.00;100251.97;5071057;28;19912;-43
2021/12/05 13:25:24;;;;;;;;;;;;;;;3.92;100.00;100249.59;5058240;28;20449;-43
2021/12/05 13:27:50;;;;;;;;;;;;;;;3.86;100.00;100247.50;5076599;28;20179;-43
2021/12/05 13:30:27;;;;;;;;;;;;;;;3.88;100.00;100251.69;5074166;28;20286;-42
2021/12/05 13:33:12;;;;;;;;;;;;;;;3.88;100.00;100256.13;5064933;28;19909;-43
2021/12/05 13:35:38;;;;;;;;;;;;;;;3.86;100.00;100269.47;5058099;28;19963;-44
2021/12/05 13:38:04;;;;;;;;;;;;;;;3.86;100.00;100273.94;5059532;28;19912;-45
2021/12/05 13:40:31;;;;;;;;;;;;;;;3.87;100.00;100275.56;5068249;28;19926;-42
2021/12/05 13:43:03;;;;;;;;;;;;;;;3.91;100.00;100279.66;5075790;28;19919;-44
2021/12/05 13:45:28;;;;;;;;;;;;;;;3.92;100.00;100284.81;5054641;28;19916;-43
2021/12/05 13:47:54;;;;;;;;;;;;;;;3.93;100.00;100280.34;5055530;28;19909;-43
2021/12/05 13:50:21;;;;;;;;;;;;;;;3.95;100.00;100277.56;5054532;28;20054;-42
2021/12/05 13:53:05;;;;;;;;;;;;;;;3.94;100.00;100289.97;5080510;28;19916;-42
2021/12/05 13:55:50;;;;;;;;;;;;;;;3.93;100.00;100286.47;5084156;28;19922;-44
2021/12/05 13:58:21;;;;;;;;;;;;;;;3.97;100.00;100291.47;5068816;28;20048;-44
2021/12/05 14:00:55;;;;;;;;;;;;;;;4.00;100.00;100293.88;5067123;28;19912;-43
2021/12/05 14:03:39;;;;;;;;;;;;;;;4.01;100.00;100295.56;5075303;28;19904;-46
2021/12/05 14:06:23;;;;;;;;;;;;;;;3.99;100.00;100293.03;5074605;28;19912;-43
2021/12/05 14:08:48;;;;;;;;;;;;;;;4.00;100.00;100297.34;5075186;28;19976;-42
2021/12/05 14:11:13;;;;;;;;;;;;;;;3.98;100.00;100291.34;5074658;28;20384;-46
2021/12/05 14:13:39;;;;;;;;;;;;;;;3.97;100.00;100308.19;5075407;28;19915;-44
2021/12/05 14:16:04;;;;;;;;;;;;;;;3.97;100.00;100310.84;5074806;28;20368;-45
2021/12/05 14:18:29;;;;;;;;;;;;;;;3.96;100.00;100314.44;5070130;28;19923;-43
2021/12/05 14:20:54;;;;;;;;;;;;;;;3.97;100.00;100318.75;5035891;28;19998;-44
2021/12/05 14:23:20;;;;;;;;;;;;;;;3.98;100.00;100323.06;5072409;28;19908;-44
2021/12/05 14:25:45;;;;;;;;;;;;;;;3.98;100.00;100328.34;5074938;28;20003;-43
2021/12/05 14:28:10;;;;;;;;;;;;;;;3.97;100.00;100345.19;5058014;28;20371;-44
2021/12/05 14:30:36;;;;;;;;;;;;;;;3.95;100.00;100351.56;5053473;28;20052;-44
2021/12/05 14:33:02;;;;;;;;;;;;;;;3.90;100.00;100352.78;5059101;28;20252;-44
2021/12/05 14:35:38;;;;;;;;;;;;;;;3.89;100.00;100363.50;5067137;28;20057;-41
2021/12/05 14:38:06;;;;;;;;;;;;;;;3.87;100.00;100366.25;5047889;28;19912;-42
2021/12/05 14:40:33;;;;;;;;;;;;;;;3.86;100.00;100371.66;5054266;28;19987;-45
2021/12/05 14:43:03;;;;;;;;;;;;;;;3.83;100.00;100371.91;5070755;28;20098;-43
2021/12/05 14:45:29;;;;;;;;;;;;;;;3.80;100.00;100378.31;5058344;28;19912;-42
2021/12/05 14:47:56;;;;;;;;;;;;;;;3.79;100.00;100383.72;5071831;28;19911;-42
2021/12/05 14:50:23;;;;;;;;;;;;;;;3.77;100.00;100389.13;5067231;28;19990;-43
2021/12/05 14:52:50;;;;;;;;;;;;;;;3.78;100.00;100397.88;5063412;28;20133;-44
2021/12/05 14:55:20;;;;;;;;;;;;;;;3.78;100.00;100397.88;5069271;28;20467;-44
2021/12/05 14:57:56;;;;;;;;;;;;;;;3.79;100.00;100408.31;5072560;28;20034;-42
2021/12/05 15:00:27;;;;;;;;;;;;;;;3.78;100.00;100405.81;5057240;28;19927;-46
2021/12/05 15:03:13;;;;;;;;;;;;;;;3.78;100.00;100408.44;5070363;28;19908;-46
2021/12/05 15:05:39;;;;;;;;;;;;;;;3.76;100.00;100423.59;5066529;28;19963;-44
2021/12/05 15:08:15;;;;;;;;;;;;;;;3.73;100.00;100422.88;5074483;28;20676;-44
2021/12/05 15:10:41;;;;;;;;;;;;;;;3.72;100.00;100431.75;5075474;28;20339;-43
2021/12/05 15:13:09;;;;;;;;;;;;;;;3.71;100.00;100434.53;5052227;28;19916;-43
2021/12/05 15:15:34;;;;;;;;;;;;;;;3.67;100.00;100438.41;5052773;28;19916;-43
2021/12/05 15:17:59;;;;;;;;;;;;;;;3.68;100.00;100447.97;5055285;28;20008;-43
2021/12/05 15:20:27;;;;;;;;;;;;;;;3.66;100.00;100449.91;5061386;28;19998;-43
2021/12/05 15:22:54;;;;;;;;;;;;;;;3.62;100.00;100451.13;5074427;28;19908;-45
2021/12/05 15:25:20;;;;;;;;;;;;;;;3.65;100.00;100459.66;5065056;28;20102;-44
2021/12/05 15:27:46;;;;;;;;;;;;;;;3.66;100.00;100465.75;5054572;28;20278;-42
2021/12/05 15:30:20;;;;;;;;;;;;;;;3.64;100.00;100471.16;5053573;28;20202;-43
2021/12/05 15:32:49;;;;;;;;;;;;;;;3.62;100.00;100462.53;5064156;28;19920;-44
2021/12/05 15:35:16;;;;;;;;;;;;;;;3.65;100.00;100480.78;5073607;28;20415;-44
2021/12/05 15:37:52;;;;;;;;;;;;;;;3.65;100.00;100479.91;5078514;28;20344;-46
2021/12/05 15:40:18;;;;;;;;;;;;;;;3.65;100.00;100485.19;5076838;28;19916;-42
2021/12/05 15:42:44;;;;;;;;;;;;;;;3.66;100.00;100502.72;5070176;28;20022;-42
2021/12/05 15:45:11;;;;;;;;;;;;;;;3.66;100.00;100498.28;5065058;28;20044;-43
2021/12/05 15:47:36;;;;;;;;;;;;;;;3.67;100.00;100496.50;5075258;28;20379;-42
2021/12/05 15:50:11;;;;;;;;;;;;;;;3.68;100.00;100500.78;5064983;28;20207;-41
2021/12/05 15:52:39;;;;;;;;;;;;;;;3.69;100.00;100510.41;5064076;28;19907;-42
2021/12/05 15:55:08;;;;;;;;;;;;;;;3.67;100.00;100505.25;5077216;28;20303;-41
2021/12/05 15:57:35;;;;;;;;;;;;;;;3.68;100.00;100506.06;5076421;28;19938;-44
2021/12/05 16:00:04;;;;;;;;;;;;;;;3.67;100.00;100514.97;5079898;28;19912;-43
2021/12/05 16:02:29;;;;;;;;;;;;;;;3.66;100.00;100522.03;5074039;28;19927;-43
2021/12/05 16:04:56;;;;;;;;;;;;;;;3.67;100.00;100528.19;5064975;28;20019;-44
2021/12/05 16:07:24;;;;;;;;;;;;;;;3.62;100.00;100523.28;5058736;28;20007;-43
2021/12/05 16:09:49;;;;;;;;;;;;;;;3.63;100.00;100526.75;5082639;28;19912;-43
2021/12/05 16:12:16;;;;;;;;;;;;;;;3.63;100.00;100532.03;5087296;28;19908;-47
2021/12/05 16:14:44;;;;;;;;;;;;;;;3.62;100.00;100533.84;5081565;28;19916;-43
2021/12/05 16:17:17;;;;;;;;;;;;;;;3.60;100.00;100541.03;5084194;28;20325;-42
2021/12/05 16:20:01;;;;;;;;;;;;;;;3.58;100.00;100536.84;5077141;28;19907;-43
2021/12/05 16:22:26;;;;;;;;;;;;;;;3.59;100.00;100559.66;5082081;28;20479;-46
2021/12/05 16:24:51;;;;;;;;;;;;;;;3.57;100.00;100558.94;5063887;28;19978;-42
2021/12/05 16:27:17;;;;;;;;;;;;;;;3.59;100.00;100568.41;5081926;28;19967;-43
2021/12/05 16:29:42;;;;;;;;;;;;;;;3.59;100.00;100565.75;5075991;28;20370;-42
2021/12/05 16:32:07;;;;;;;;;;;;;;;3.60;100.00;100572.72;5070940;28;19919;-44
2021/12/05 16:34:33;;;;;;;;;;;;;;;3.57;100.00;100572.97;5055816;28;19904;-44
2021/12/05 16:37:00;;;;;;;;;;;;;;;3.62;100.00;100583.19;5037938;28;19916;-44
2021/12/05 16:39:30;;;;;;;;;;;;;;;3.62;100.00;100580.53;5061947;28;19912;-43
2021/12/05 16:41:57;;;;;;;;;;;;;;;3.61;100.00;100590.25;5073783;28;19912;-43
2021/12/05 16:44:29;;;;;;;;;;;;;;;3.61;100.00;100582.31;5073371;28;20357;-44
2021/12/05 16:46:56;;;;;;;;;;;;;;;3.61;100.00;100576.19;5058837;28;20057;-43
2021/12/05 16:49:23;;;;;;;;;;;;;;;3.61;100.00;100581.47;5078197;28;19919;-44
2021/12/05 16:51:48;;;;;;;;;;;;;;;3.62;100.00;100591.09;5075002;28;20236;-43
2021/12/05 16:54:23;;;;;;;;;;;;;;;3.61;100.00;100589.41;5075464;28;20256;-42
2021/12/05 16:57:01;;;;;;;;;;;;;;;3.60;100.00;100596.50;5076505;28;19920;-42
2021/12/05 16:59:31;;;;;;;;;;;;;;;3.55;100.00;100590.75;5075186;28;19912;-44
2021/12/05 17:02:07;;;;;;;;;;;;;;;3.60;100.00;100600.91;5074316;28;20239;-43
2021/12/05 17:04:46;;;;;;;;;;;;;;;3.58;100.00;100600.22;5070988;28;20443;-42
2021/12/05 17:07:14;;;;;;;;;;;;;;;3.57;100.00;100614.38;5071142;28;19919;-42
2021/12/05 17:09:40;;;;;;;;;;;;;;;3.51;100.00;100611.28;5096593;28;19934;-43
2021/12/05 17:12:05;;;;;;;;;;;;;;;3.56;100.00;100632.00;5096882;28;20704;-42
2021/12/05 17:14:30;;;;;;;;;;;;;;;3.55;100.00;100627.72;5095675;28;19954;-46
2021/12/05 17:16:56;;;;;;;;;;;;;;;3.55;100.00;100631.19;5078822;28;19912;-43
2021/12/05 17:19:24;;;;;;;;;;;;;;;3.54;100.00;100640.06;5077335;28;19920;-42
2021/12/05 17:21:49;;;;;;;;;;;;;;;3.53;100.00;100633.09;5076550;28;19915;-43
2021/12/05 17:24:23;;;;;;;;;;;;;;;3.53;100.00;100646.31;5076690;28;19920;-42
2021/12/05 17:26:50;;;;;;;;;;;;;;;3.53;100.00;100650.72;5076863;28;19919;-41
2021/12/05 17:29:19;;;;;;;;;;;;;;;3.52;100.00;100649.06;5064936;28;19913;-43
2021/12/05 17:31:49;;;;;;;;;;;;;;;3.53;100.00;100653.38;5074276;28;19919;-44
2021/12/05 17:34:18;;;;;;;;;;;;;;;3.52;100.00;100660.47;5073120;28;19939;-42
2021/12/05 17:36:50;;;;;;;;;;;;;;;3.50;100.00;100664.19;5074643;28;19916;-44
2021/12/05 17:39:20;;;;;;;;;;;;;;;3.48;100.00;100671.38;5071928;28;19923;-43
2021/12/05 17:41:48;;;;;;;;;;;;;;;3.46;100.00;100675.94;5082553;28;19955;-44
2021/12/05 17:44:15;;;;;;;;;;;;;;;3.45;100.00;100687.47;5080989;28;20426;-42
2021/12/05 17:46:41;;;;;;;;;;;;;;;3.44;100.00;100676.06;5072571;28;19966;-44
2021/12/05 17:49:07;;;;;;;;;;;;;;;3.45;100.00;100692.75;5075144;28;19951;-45
2021/12/05 17:51:37;;;;;;;;;;;;;;;3.47;100.00;100701.38;5073750;28;19955;-44
2021/12/05 17:54:04;;;;;;;;;;;;;;;3.47;100.00;100704.88;5074400;28;19912;-43
2021/12/05 17:59:23;;;;;;;;;;;;;;;3.48;100.00;100716.25;5074694;28;20348;-43
2021/12/05 18:04:32;;;;;;;;;;;;;;;3.48;100.00;100724.19;5054063;28;20514;-43
2021/12/05 18:06:58;;;;;;;;;;;;;;;3.48;100.00;100730.31;5060747;28;20220;-44
2021/12/05 18:09:23;;;;;;;;;;;;;;;3.49;100.00;100723.22;5067703;28;19930;-43